sensor_id;sensor_type;location;lat;lon;timestamp;P1;durP1;ratioP1;P2;durP2;ratioP2
12982;SDS011;6556;51.052;4.498;2022-08-14T00:00:49;5.77;;;2.43;;
12982;SDS011;6556;51.052;4.498;2022-08-14T00:03:20;5.63;;;2.37;;
12982;SDS011;6556;51.052;4.498;2022-08-14T00:05:46;2.47;;;1.90;;
12982;SDS011;6556;51.052;4.498;2022-08-14T00:08:13;2.67;;;1.70;;
12982;SDS011;6556;51.052;4.498;2022-08-14T00:10:40;4.47;;;2.00;;
12982;SDS011;6556;51.052;4.498;2022-08-14T00:13:07;2.07;;;1.87;;
12982;SDS011;6556;51.052;4.498;2022-08-14T00:15:35;2.73;;;2.00;;
12982;SDS011;6556;51.052;4.498;2022-08-14T00:18:01;3.83;;;2.50;;
12982;SDS011;6556;51.052;4.498;2022-08-14T00:20:29;4.60;;;2.75;;
12982;SDS011;6556;51.052;4.498;2022-08-14T00:22:55;2.30;;;2.10;;
12982;SDS011;6556;51.052;4.498;2022-08-14T00:25:22;3.23;;;2.30;;
12982;SDS011;6556;51.052;4.498;2022-08-14T00:27:48;3.30;;;2.27;;
12982;SDS011;6556;51.052;4.498;2022-08-14T00:30:15;2.70;;;2.20;;
12982;SDS011;6556;51.052;4.498;2022-08-14T00:32:42;4.27;;;2.13;;
12982;SDS011;6556;51.052;4.498;2022-08-14T00:35:10;3.23;;;2.10;;
12982;SDS011;6556;51.052;4.498;2022-08-14T00:37:37;3.40;;;2.40;;
12982;SDS011;6556;51.052;4.498;2022-08-14T00:40:03;2.73;;;2.20;;
12982;SDS011;6556;51.052;4.498;2022-08-14T00:42:30;2.33;;;2.10;;
12982;SDS011;6556;51.052;4.498;2022-08-14T00:44:57;4.67;;;2.70;;
12982;SDS011;6556;51.052;4.498;2022-08-14T00:47:24;5.78;;;2.90;;
12982;SDS011;6556;51.052;4.498;2022-08-14T00:49:52;4.95;;;2.60;;
12982;SDS011;6556;51.052;4.498;2022-08-14T00:52:18;2.97;;;2.50;;
12982;SDS011;6556;51.052;4.498;2022-08-14T00:54:47;4.10;;;2.43;;
12982;SDS011;6556;51.052;4.498;2022-08-14T00:57:12;2.97;;;2.20;;
12982;SDS011;6556;51.052;4.498;2022-08-14T00:59:39;2.40;;;2.07;;
12982;SDS011;6556;51.052;4.498;2022-08-14T01:02:06;4.37;;;2.62;;
12982;SDS011;6556;51.052;4.498;2022-08-14T01:04:33;4.80;;;2.72;;
12982;SDS011;6556;51.052;4.498;2022-08-14T01:07:00;5.13;;;2.20;;
12982;SDS011;6556;51.052;4.498;2022-08-14T01:09:27;3.73;;;2.20;;
12982;SDS011;6556;51.052;4.498;2022-08-14T01:11:54;4.57;;;2.55;;
12982;SDS011;6556;51.052;4.498;2022-08-14T01:14:21;3.23;;;2.50;;
12982;SDS011;6556;51.052;4.498;2022-08-14T01:16:48;2.80;;;2.00;;
12982;SDS011;6556;51.052;4.498;2022-08-14T01:19:14;4.97;;;2.33;;
12982;SDS011;6556;51.052;4.498;2022-08-14T01:21:59;3.10;;;2.10;;
12982;SDS011;6556;51.052;4.498;2022-08-14T01:24:26;3.40;;;2.47;;
12982;SDS011;6556;51.052;4.498;2022-08-14T01:26:53;4.13;;;2.30;;
12982;SDS011;6556;51.052;4.498;2022-08-14T01:29:20;3.97;;;2.47;;
12982;SDS011;6556;51.052;4.498;2022-08-14T01:31:47;3.30;;;2.40;;
12982;SDS011;6556;51.052;4.498;2022-08-14T01:34:17;5.23;;;2.93;;
12982;SDS011;6556;51.052;4.498;2022-08-14T01:36:44;3.40;;;2.33;;
12982;SDS011;6556;51.052;4.498;2022-08-14T01:39:15;4.85;;;2.80;;
12982;SDS011;6556;51.052;4.498;2022-08-14T01:41:39;3.70;;;2.27;;
12982;SDS011;6556;51.052;4.498;2022-08-14T01:44:06;3.83;;;1.97;;
12982;SDS011;6556;51.052;4.498;2022-08-14T01:46:33;2.03;;;1.73;;
12982;SDS011;6556;51.052;4.498;2022-08-14T01:48:59;2.10;;;1.90;;
12982;SDS011;6556;51.052;4.498;2022-08-14T01:51:26;4.20;;;2.60;;
12982;SDS011;6556;51.052;4.498;2022-08-14T01:53:54;4.85;;;3.00;;
12982;SDS011;6556;51.052;4.498;2022-08-14T01:56:20;3.50;;;2.30;;
12982;SDS011;6556;51.052;4.498;2022-08-14T01:58:47;4.67;;;2.63;;
12982;SDS011;6556;51.052;4.498;2022-08-14T02:01:17;4.13;;;2.23;;
12982;SDS011;6556;51.052;4.498;2022-08-14T02:03:40;3.17;;;2.03;;
12982;SDS011;6556;51.052;4.498;2022-08-14T02:06:07;2.30;;;2.07;;
12982;SDS011;6556;51.052;4.498;2022-08-14T02:08:34;2.40;;;2.10;;
12982;SDS011;6556;51.052;4.498;2022-08-14T02:11:01;4.50;;;2.47;;
12982;SDS011;6556;51.052;4.498;2022-08-14T02:13:48;4.78;;;2.90;;
12982;SDS011;6556;51.052;4.498;2022-08-14T02:16:26;2.43;;;2.03;;
12982;SDS011;6556;51.052;4.498;2022-08-14T02:18:53;2.80;;;2.13;;
12982;SDS011;6556;51.052;4.498;2022-08-14T02:21:19;3.85;;;2.67;;
12982;SDS011;6556;51.052;4.498;2022-08-14T02:23:46;4.07;;;2.30;;
12982;SDS011;6556;51.052;4.498;2022-08-14T02:26:14;3.23;;;2.17;;
12982;SDS011;6556;51.052;4.498;2022-08-14T02:28:40;2.90;;;2.03;;
12982;SDS011;6556;51.052;4.498;2022-08-14T02:31:07;3.37;;;2.50;;
12982;SDS011;6556;51.052;4.498;2022-08-14T02:33:34;5.07;;;2.92;;
12982;SDS011;6556;51.052;4.498;2022-08-14T02:36:01;6.55;;;2.80;;
12982;SDS011;6556;51.052;4.498;2022-08-14T02:38:28;3.80;;;2.40;;
12982;SDS011;6556;51.052;4.498;2022-08-14T02:40:55;2.60;;;2.20;;
12982;SDS011;6556;51.052;4.498;2022-08-14T02:43:21;3.93;;;2.50;;
12982;SDS011;6556;51.052;4.498;2022-08-14T02:45:48;3.43;;;2.50;;
12982;SDS011;6556;51.052;4.498;2022-08-14T02:48:15;5.33;;;3.10;;
12982;SDS011;6556;51.052;4.498;2022-08-14T02:50:42;4.43;;;2.77;;
12982;SDS011;6556;51.052;4.498;2022-08-14T02:53:09;3.30;;;2.07;;
12982;SDS011;6556;51.052;4.498;2022-08-14T02:55:36;4.17;;;2.43;;
12982;SDS011;6556;51.052;4.498;2022-08-14T02:58:03;4.87;;;2.90;;
12982;SDS011;6556;51.052;4.498;2022-08-14T03:00:30;3.60;;;2.23;;
12982;SDS011;6556;51.052;4.498;2022-08-14T03:02:57;4.93;;;2.87;;
12982;SDS011;6556;51.052;4.498;2022-08-14T03:05:24;4.27;;;2.73;;
12982;SDS011;6556;51.052;4.498;2022-08-14T03:07:51;3.97;;;2.67;;
12982;SDS011;6556;51.052;4.498;2022-08-14T03:10:18;6.72;;;3.33;;
12982;SDS011;6556;51.052;4.498;2022-08-14T03:12:45;4.60;;;2.87;;
12982;SDS011;6556;51.052;4.498;2022-08-14T03:15:12;3.53;;;2.50;;
12982;SDS011;6556;51.052;4.498;2022-08-14T03:17:38;5.03;;;2.80;;
12982;SDS011;6556;51.052;4.498;2022-08-14T03:20:06;4.37;;;2.70;;
12982;SDS011;6556;51.052;4.498;2022-08-14T03:22:32;5.93;;;3.22;;
12982;SDS011;6556;51.052;4.498;2022-08-14T03:24:59;6.03;;;2.93;;
12982;SDS011;6556;51.052;4.498;2022-08-14T03:27:29;3.80;;;2.50;;
12982;SDS011;6556;51.052;4.498;2022-08-14T03:29:53;5.18;;;3.10;;
12982;SDS011;6556;51.052;4.498;2022-08-14T03:32:20;5.55;;;3.12;;
12982;SDS011;6556;51.052;4.498;2022-08-14T03:34:47;4.97;;;2.67;;
12982;SDS011;6556;51.052;4.498;2022-08-14T03:37:14;3.63;;;2.53;;
12982;SDS011;6556;51.052;4.498;2022-08-14T03:39:41;4.63;;;2.63;;
12982;SDS011;6556;51.052;4.498;2022-08-14T03:42:08;4.73;;;2.80;;
12982;SDS011;6556;51.052;4.498;2022-08-14T03:44:35;2.67;;;2.10;;
12982;SDS011;6556;51.052;4.498;2022-08-14T03:47:02;7.07;;;3.23;;
12982;SDS011;6556;51.052;4.498;2022-08-14T03:49:29;5.87;;;2.97;;
12982;SDS011;6556;51.052;4.498;2022-08-14T03:51:56;3.77;;;2.43;;
12982;SDS011;6556;51.052;4.498;2022-08-14T03:54:23;6.07;;;3.15;;
12982;SDS011;6556;51.052;4.498;2022-08-14T03:56:50;6.47;;;3.20;;
12982;SDS011;6556;51.052;4.498;2022-08-14T03:59:17;6.90;;;3.55;;
12982;SDS011;6556;51.052;4.498;2022-08-14T04:01:44;3.40;;;2.60;;
12982;SDS011;6556;51.052;4.498;2022-08-14T04:04:11;4.23;;;2.77;;
12982;SDS011;6556;51.052;4.498;2022-08-14T04:06:38;5.17;;;2.53;;
12982;SDS011;6556;51.052;4.498;2022-08-14T04:09:05;3.03;;;2.20;;
12982;SDS011;6556;51.052;4.498;2022-08-14T04:11:32;2.93;;;2.23;;
12982;SDS011;6556;51.052;4.498;2022-08-14T04:13:58;4.20;;;2.50;;
12982;SDS011;6556;51.052;4.498;2022-08-14T04:16:25;5.03;;;2.80;;
12982;SDS011;6556;51.052;4.498;2022-08-14T04:18:53;3.63;;;2.37;;
12982;SDS011;6556;51.052;4.498;2022-08-14T04:21:20;4.83;;;2.80;;
12982;SDS011;6556;51.052;4.498;2022-08-14T04:23:46;5.10;;;2.90;;
12982;SDS011;6556;51.052;4.498;2022-08-14T04:26:13;6.05;;;3.00;;
12982;SDS011;6556;51.052;4.498;2022-08-14T04:28:40;4.72;;;2.90;;
12982;SDS011;6556;51.052;4.498;2022-08-14T04:31:07;5.28;;;3.25;;
12982;SDS011;6556;51.052;4.498;2022-08-14T04:33:34;6.80;;;3.27;;
12982;SDS011;6556;51.052;4.498;2022-08-14T04:36:01;4.27;;;2.80;;
12982;SDS011;6556;51.052;4.498;2022-08-14T04:38:28;4.50;;;2.60;;
12982;SDS011;6556;51.052;4.498;2022-08-14T04:41:13;3.73;;;2.40;;
12982;SDS011;6556;51.052;4.498;2022-08-14T04:43:58;5.77;;;2.90;;
12982;SDS011;6556;51.052;4.498;2022-08-14T04:46:25;3.60;;;2.60;;
12982;SDS011;6556;51.052;4.498;2022-08-14T04:48:52;4.30;;;2.60;;
12982;SDS011;6556;51.052;4.498;2022-08-14T04:51:20;5.07;;;2.67;;
12982;SDS011;6556;51.052;4.498;2022-08-14T04:53:47;4.17;;;2.43;;
12982;SDS011;6556;51.052;4.498;2022-08-14T04:56:17;3.47;;;2.40;;
12982;SDS011;6556;51.052;4.498;2022-08-14T04:58:40;5.33;;;2.67;;
12982;SDS011;6556;51.052;4.498;2022-08-14T05:01:07;6.35;;;3.42;;
12982;SDS011;6556;51.052;4.498;2022-08-14T05:03:34;7.78;;;3.65;;
12982;SDS011;6556;51.052;4.498;2022-08-14T05:06:02;6.17;;;3.00;;
12982;SDS011;6556;51.052;4.498;2022-08-14T05:08:28;3.07;;;2.40;;
12982;SDS011;6556;51.052;4.498;2022-08-14T05:10:55;4.10;;;2.67;;
12982;SDS011;6556;51.052;4.498;2022-08-14T05:13:22;4.03;;;2.47;;
12982;SDS011;6556;51.052;4.498;2022-08-14T05:15:49;5.07;;;2.60;;
12982;SDS011;6556;51.052;4.498;2022-08-14T05:18:16;3.50;;;2.80;;
12982;SDS011;6556;51.052;4.498;2022-08-14T05:20:43;4.37;;;2.80;;
12982;SDS011;6556;51.052;4.498;2022-08-14T05:23:09;4.43;;;2.67;;
12982;SDS011;6556;51.052;4.498;2022-08-14T05:25:36;4.80;;;2.53;;
12982;SDS011;6556;51.052;4.498;2022-08-14T05:30:38;6.25;;;3.40;;
12982;SDS011;6556;51.052;4.498;2022-08-14T05:33:05;5.60;;;3.50;;
12982;SDS011;6556;51.052;4.498;2022-08-14T05:35:32;4.67;;;2.53;;
12982;SDS011;6556;51.052;4.498;2022-08-14T05:37:59;4.70;;;2.80;;
12982;SDS011;6556;51.052;4.498;2022-08-14T05:40:26;4.63;;;2.73;;
12982;SDS011;6556;51.052;4.498;2022-08-14T05:42:53;4.95;;;3.10;;
12982;SDS011;6556;51.052;4.498;2022-08-14T05:45:20;5.40;;;3.03;;
12982;SDS011;6556;51.052;4.498;2022-08-14T05:47:47;4.33;;;2.57;;
12982;SDS011;6556;51.052;4.498;2022-08-14T05:50:14;2.83;;;2.13;;
12982;SDS011;6556;51.052;4.498;2022-08-14T05:52:41;5.57;;;2.43;;
12982;SDS011;6556;51.052;4.498;2022-08-14T05:55:09;3.40;;;2.43;;
12982;SDS011;6556;51.052;4.498;2022-08-14T06:00:21;3.60;;;2.33;;
12982;SDS011;6556;51.052;4.498;2022-08-14T06:02:47;4.57;;;2.47;;
12982;SDS011;6556;51.052;4.498;2022-08-14T06:05:14;2.87;;;2.27;;
12982;SDS011;6556;51.052;4.498;2022-08-14T06:07:41;3.30;;;2.40;;
12982;SDS011;6556;51.052;4.498;2022-08-14T06:10:08;4.20;;;2.37;;
12982;SDS011;6556;51.052;4.498;2022-08-14T06:12:35;3.30;;;2.23;;
12982;SDS011;6556;51.052;4.498;2022-08-14T06:15:02;3.93;;;2.60;;
12982;SDS011;6556;51.052;4.498;2022-08-14T06:17:28;4.90;;;2.90;;
12982;SDS011;6556;51.052;4.498;2022-08-14T06:19:55;3.70;;;2.33;;
12982;SDS011;6556;51.052;4.498;2022-08-14T06:22:22;4.55;;;2.90;;
12982;SDS011;6556;51.052;4.498;2022-08-14T06:24:49;4.03;;;2.70;;
12982;SDS011;6556;51.052;4.498;2022-08-14T06:27:16;4.43;;;2.73;;
12982;SDS011;6556;51.052;4.498;2022-08-14T06:29:43;3.50;;;2.40;;
12982;SDS011;6556;51.052;4.498;2022-08-14T06:32:10;5.50;;;2.70;;
12982;SDS011;6556;51.052;4.498;2022-08-14T06:34:37;3.23;;;2.20;;
12982;SDS011;6556;51.052;4.498;2022-08-14T06:37:04;3.97;;;2.27;;
12982;SDS011;6556;51.052;4.498;2022-08-14T06:39:31;2.60;;;2.23;;
12982;SDS011;6556;51.052;4.498;2022-08-14T06:41:58;3.90;;;2.17;;
12982;SDS011;6556;51.052;4.498;2022-08-14T06:44:25;2.87;;;1.93;;
12982;SDS011;6556;51.052;4.498;2022-08-14T06:46:51;3.57;;;2.40;;
12982;SDS011;6556;51.052;4.498;2022-08-14T06:49:18;3.67;;;2.30;;
12982;SDS011;6556;51.052;4.498;2022-08-14T06:51:45;3.67;;;2.47;;
12982;SDS011;6556;51.052;4.498;2022-08-14T06:54:12;2.60;;;2.00;;
12982;SDS011;6556;51.052;4.498;2022-08-14T06:56:39;4.00;;;2.20;;
12982;SDS011;6556;51.052;4.498;2022-08-14T06:59:06;4.80;;;2.37;;
12982;SDS011;6556;51.052;4.498;2022-08-14T07:01:33;4.07;;;2.50;;
12982;SDS011;6556;51.052;4.498;2022-08-14T07:04:18;5.53;;;2.63;;
12982;SDS011;6556;51.052;4.498;2022-08-14T07:07:04;3.77;;;2.50;;
12982;SDS011;6556;51.052;4.498;2022-08-14T07:09:31;4.73;;;2.40;;
12982;SDS011;6556;51.052;4.498;2022-08-14T07:11:57;4.13;;;2.87;;
12982;SDS011;6556;51.052;4.498;2022-08-14T07:14:24;3.47;;;2.57;;
12982;SDS011;6556;51.052;4.498;2022-08-14T07:16:51;5.27;;;3.13;;
12982;SDS011;6556;51.052;4.498;2022-08-14T07:19:18;4.80;;;2.60;;
12982;SDS011;6556;51.052;4.498;2022-08-14T07:21:45;3.97;;;2.50;;
12982;SDS011;6556;51.052;4.498;2022-08-14T07:24:12;5.37;;;2.83;;
12982;SDS011;6556;51.052;4.498;2022-08-14T07:26:39;3.83;;;2.33;;
12982;SDS011;6556;51.052;4.498;2022-08-14T07:29:06;2.87;;;2.40;;
12982;SDS011;6556;51.052;4.498;2022-08-14T07:31:33;4.50;;;2.53;;
12982;SDS011;6556;51.052;4.498;2022-08-14T07:34:00;3.13;;;2.30;;
12982;SDS011;6556;51.052;4.498;2022-08-14T07:36:27;4.90;;;2.97;;
12982;SDS011;6556;51.052;4.498;2022-08-14T07:38:54;4.37;;;2.73;;
12982;SDS011;6556;51.052;4.498;2022-08-14T07:41:21;4.40;;;2.70;;
12982;SDS011;6556;51.052;4.498;2022-08-14T07:43:48;4.83;;;2.87;;
12982;SDS011;6556;51.052;4.498;2022-08-14T07:46:15;4.40;;;2.90;;
12982;SDS011;6556;51.052;4.498;2022-08-14T07:48:42;5.03;;;3.10;;
12982;SDS011;6556;51.052;4.498;2022-08-14T07:51:09;4.90;;;3.17;;
12982;SDS011;6556;51.052;4.498;2022-08-14T07:53:36;5.20;;;3.17;;
12982;SDS011;6556;51.052;4.498;2022-08-14T07:56:03;5.82;;;3.40;;
12982;SDS011;6556;51.052;4.498;2022-08-14T07:58:30;3.70;;;2.87;;
12982;SDS011;6556;51.052;4.498;2022-08-14T08:00:56;4.00;;;2.67;;
12982;SDS011;6556;51.052;4.498;2022-08-14T08:03:24;4.00;;;2.73;;
12982;SDS011;6556;51.052;4.498;2022-08-14T08:05:50;6.03;;;3.13;;
12982;SDS011;6556;51.052;4.498;2022-08-14T08:08:17;5.57;;;2.87;;
12982;SDS011;6556;51.052;4.498;2022-08-14T08:10:44;4.07;;;2.78;;
12982;SDS011;6556;51.052;4.498;2022-08-14T08:13:12;3.67;;;2.63;;
12982;SDS011;6556;51.052;4.498;2022-08-14T08:15:39;4.10;;;2.90;;
12982;SDS011;6556;51.052;4.498;2022-08-14T08:18:09;3.13;;;2.57;;
12982;SDS011;6556;51.052;4.498;2022-08-14T08:20:36;4.10;;;2.60;;
12982;SDS011;6556;51.052;4.498;2022-08-14T08:23:03;6.80;;;3.00;;
12982;SDS011;6556;51.052;4.498;2022-08-14T08:25:31;5.15;;;3.00;;
12982;SDS011;6556;51.052;4.498;2022-08-14T08:30:23;3.57;;;2.63;;
12982;SDS011;6556;51.052;4.498;2022-08-14T08:32:50;3.70;;;2.50;;
12982;SDS011;6556;51.052;4.498;2022-08-14T08:35:17;3.20;;;2.47;;
12982;SDS011;6556;51.052;4.498;2022-08-14T08:37:43;4.00;;;2.70;;
12982;SDS011;6556;51.052;4.498;2022-08-14T08:40:10;5.85;;;2.87;;
12982;SDS011;6556;51.052;4.498;2022-08-14T08:42:37;3.43;;;2.50;;
12982;SDS011;6556;51.052;4.498;2022-08-14T08:45:05;4.00;;;2.50;;
12982;SDS011;6556;51.052;4.498;2022-08-14T08:47:38;3.70;;;2.43;;
12982;SDS011;6556;51.052;4.498;2022-08-14T08:50:14;4.93;;;2.60;;
12982;SDS011;6556;51.052;4.498;2022-08-14T08:52:31;3.50;;;2.33;;
12982;SDS011;6556;51.052;4.498;2022-08-14T08:54:58;4.80;;;2.70;;
12982;SDS011;6556;51.052;4.498;2022-08-14T08:57:25;3.43;;;2.47;;
12982;SDS011;6556;51.052;4.498;2022-08-14T08:59:52;2.50;;;2.30;;
12982;SDS011;6556;51.052;4.498;2022-08-14T09:02:19;4.50;;;2.40;;
12982;SDS011;6556;51.052;4.498;2022-08-14T09:04:46;4.43;;;2.57;;
12982;SDS011;6556;51.052;4.498;2022-08-14T09:07:13;5.03;;;2.80;;
12982;SDS011;6556;51.052;4.498;2022-08-14T09:09:40;4.03;;;2.50;;
12982;SDS011;6556;51.052;4.498;2022-08-14T09:12:16;4.43;;;2.40;;
12982;SDS011;6556;51.052;4.498;2022-08-14T09:14:43;4.05;;;2.65;;
12982;SDS011;6556;51.052;4.498;2022-08-14T09:17:10;2.97;;;2.37;;
12982;SDS011;6556;51.052;4.498;2022-08-14T09:19:37;4.12;;;2.83;;
12982;SDS011;6556;51.052;4.498;2022-08-14T09:22:04;3.57;;;2.40;;
12982;SDS011;6556;51.052;4.498;2022-08-14T09:24:31;2.30;;;2.10;;
12982;SDS011;6556;51.052;4.498;2022-08-14T09:26:57;3.63;;;2.30;;
12982;SDS011;6556;51.052;4.498;2022-08-14T09:29:24;4.20;;;2.20;;
12982;SDS011;6556;51.052;4.498;2022-08-14T09:31:52;3.07;;;2.50;;
12982;SDS011;6556;51.052;4.498;2022-08-14T09:34:26;3.20;;;2.27;;
12982;SDS011;6556;51.052;4.498;2022-08-14T09:36:51;3.12;;;2.58;;
12982;SDS011;6556;51.052;4.498;2022-08-14T09:47:40;2.83;;;2.20;;
12982;SDS011;6556;51.052;4.498;2022-08-14T09:52:48;2.97;;;2.47;;
12982;SDS011;6556;51.052;4.498;2022-08-14T09:55:18;2.97;;;2.07;;
12982;SDS011;6556;51.052;4.498;2022-08-14T09:57:44;2.23;;;2.03;;
12982;SDS011;6556;51.052;4.498;2022-08-14T10:00:11;3.50;;;2.60;;
12982;SDS011;6556;51.052;4.498;2022-08-14T10:02:50;2.90;;;2.33;;
12982;SDS011;6556;51.052;4.498;2022-08-14T10:05:25;3.17;;;2.30;;
12982;SDS011;6556;51.052;4.498;2022-08-14T10:07:49;2.30;;;1.90;;
12982;SDS011;6556;51.052;4.498;2022-08-14T10:12:58;3.07;;;2.10;;
12982;SDS011;6556;51.052;4.498;2022-08-14T10:15:25;3.20;;;2.00;;
12982;SDS011;6556;51.052;4.498;2022-08-14T10:18:04;2.93;;;2.13;;
12982;SDS011;6556;51.052;4.498;2022-08-14T10:20:37;2.43;;;1.90;;
12982;SDS011;6556;51.052;4.498;2022-08-14T10:23:13;2.27;;;1.87;;
12982;SDS011;6556;51.052;4.498;2022-08-14T10:25:45;2.50;;;2.00;;
12982;SDS011;6556;51.052;4.498;2022-08-14T10:28:11;1.27;;;1.07;;
12982;SDS011;6556;51.052;4.498;2022-08-14T10:30:41;2.27;;;1.90;;
12982;SDS011;6556;51.052;4.498;2022-08-14T10:33:07;3.43;;;2.07;;
12982;SDS011;6556;51.052;4.498;2022-08-14T10:35:43;2.67;;;2.03;;
12982;SDS011;6556;51.052;4.498;2022-08-14T10:38:10;2.10;;;1.90;;
12982;SDS011;6556;51.052;4.498;2022-08-14T10:40:37;2.13;;;1.80;;
12982;SDS011;6556;51.052;4.498;2022-08-14T10:43:17;2.17;;;1.97;;
12982;SDS011;6556;51.052;4.498;2022-08-14T10:45:51;2.27;;;1.90;;
12982;SDS011;6556;51.052;4.498;2022-08-14T10:48:13;2.47;;;2.00;;
12982;SDS011;6556;51.052;4.498;2022-08-14T10:50:40;1.83;;;1.73;;
12982;SDS011;6556;51.052;4.498;2022-08-14T10:53:07;3.47;;;2.50;;
12982;SDS011;6556;51.052;4.498;2022-08-14T10:55:35;2.72;;;2.20;;
12982;SDS011;6556;51.052;4.498;2022-08-14T10:58:01;2.53;;;2.25;;
12982;SDS011;6556;51.052;4.498;2022-08-14T11:00:28;1.80;;;1.70;;
12982;SDS011;6556;51.052;4.498;2022-08-14T11:03:05;2.33;;;1.90;;
12982;SDS011;6556;51.052;4.498;2022-08-14T11:05:37;3.10;;;2.13;;
12982;SDS011;6556;51.052;4.498;2022-08-14T11:08:03;2.07;;;1.87;;
12982;SDS011;6556;51.052;4.498;2022-08-14T11:10:46;2.97;;;1.97;;
12982;SDS011;6556;51.052;4.498;2022-08-14T11:13:15;3.43;;;2.10;;
12982;SDS011;6556;51.052;4.498;2022-08-14T11:15:44;2.50;;;1.90;;
12982;SDS011;6556;51.052;4.498;2022-08-14T11:18:11;3.10;;;2.20;;
12982;SDS011;6556;51.052;4.498;2022-08-14T11:20:38;2.60;;;1.93;;
12982;SDS011;6556;51.052;4.498;2022-08-14T11:23:05;2.40;;;1.97;;
12982;SDS011;6556;51.052;4.498;2022-08-14T11:25:31;2.37;;;2.03;;
12982;SDS011;6556;51.052;4.498;2022-08-14T11:27:58;2.58;;;2.10;;
12982;SDS011;6556;51.052;4.498;2022-08-14T11:30:27;2.42;;;2.12;;
12982;SDS011;6556;51.052;4.498;2022-08-14T11:32:52;2.40;;;2.00;;
12982;SDS011;6556;51.052;4.498;2022-08-14T11:35:20;2.67;;;1.97;;
12982;SDS011;6556;51.052;4.498;2022-08-14T11:37:57;2.60;;;2.00;;
12982;SDS011;6556;51.052;4.498;2022-08-14T11:40:23;2.97;;;2.07;;
12982;SDS011;6556;51.052;4.498;2022-08-14T11:42:50;3.27;;;1.93;;
12982;SDS011;6556;51.052;4.498;2022-08-14T11:45:16;1.80;;;1.70;;
12982;SDS011;6556;51.052;4.498;2022-08-14T11:47:43;2.27;;;1.80;;
12982;SDS011;6556;51.052;4.498;2022-08-14T11:50:11;2.83;;;2.03;;
12982;SDS011;6556;51.052;4.498;2022-08-14T11:52:40;3.00;;;2.40;;
12982;SDS011;6556;51.052;4.498;2022-08-14T11:55:07;2.17;;;1.97;;
12982;SDS011;6556;51.052;4.498;2022-08-14T11:57:34;2.13;;;1.93;;
12982;SDS011;6556;51.052;4.498;2022-08-14T12:00:02;4.43;;;2.40;;
12982;SDS011;6556;51.052;4.498;2022-08-14T12:02:27;2.60;;;2.00;;
12982;SDS011;6556;51.052;4.498;2022-08-14T12:04:54;1.90;;;1.80;;
12982;SDS011;6556;51.052;4.498;2022-08-14T12:07:21;3.50;;;2.20;;
12982;SDS011;6556;51.052;4.498;2022-08-14T12:09:50;2.07;;;1.83;;
12982;SDS011;6556;51.052;4.498;2022-08-14T12:12:18;2.00;;;1.90;;
12982;SDS011;6556;51.052;4.498;2022-08-14T12:14:52;2.40;;;1.93;;
12982;SDS011;6556;51.052;4.498;2022-08-14T12:17:27;3.20;;;2.07;;
12982;SDS011;6556;51.052;4.498;2022-08-14T12:19:58;2.83;;;2.10;;
12982;SDS011;6556;51.052;4.498;2022-08-14T12:25:10;3.42;;;2.30;;
12982;SDS011;6556;51.052;4.498;2022-08-14T12:27:36;4.10;;;2.20;;
12982;SDS011;6556;51.052;4.498;2022-08-14T12:30:05;1.83;;;1.70;;
12982;SDS011;6556;51.052;4.498;2022-08-14T12:32:41;1.80;;;1.70;;
12982;SDS011;6556;51.052;4.498;2022-08-14T12:35:05;2.37;;;1.90;;
12982;SDS011;6556;51.052;4.498;2022-08-14T12:37:32;2.58;;;2.12;;
12982;SDS011;6556;51.052;4.498;2022-08-14T12:40:09;2.03;;;1.83;;
12982;SDS011;6556;51.052;4.498;2022-08-14T12:42:38;2.10;;;1.80;;
12982;SDS011;6556;51.052;4.498;2022-08-14T12:45:05;3.57;;;2.00;;
12982;SDS011;6556;51.052;4.498;2022-08-14T12:47:32;1.60;;;1.37;;
12982;SDS011;6556;51.052;4.498;2022-08-14T12:49:59;2.30;;;1.70;;
12982;SDS011;6556;51.052;4.498;2022-08-14T12:52:27;3.13;;;2.10;;
12982;SDS011;6556;51.052;4.498;2022-08-14T12:54:59;3.40;;;2.10;;
12982;SDS011;6556;51.052;4.498;2022-08-14T12:57:31;2.60;;;1.80;;
12982;SDS011;6556;51.052;4.498;2022-08-14T12:59:49;2.00;;;1.80;;
12982;SDS011;6556;51.052;4.498;2022-08-14T13:02:23;1.67;;;1.57;;
12982;SDS011;6556;51.052;4.498;2022-08-14T13:04:49;2.00;;;1.77;;
12982;SDS011;6556;51.052;4.498;2022-08-14T13:07:16;3.13;;;2.10;;
12982;SDS011;6556;51.052;4.498;2022-08-14T13:09:43;2.33;;;1.80;;
12982;SDS011;6556;51.052;4.498;2022-08-14T13:12:10;3.50;;;2.00;;
12982;SDS011;6556;51.052;4.498;2022-08-14T13:14:37;2.85;;;2.30;;
12982;SDS011;6556;51.052;4.498;2022-08-14T13:17:04;2.40;;;2.20;;
12982;SDS011;6556;51.052;4.498;2022-08-14T13:19:31;2.10;;;1.90;;
12982;SDS011;6556;51.052;4.498;2022-08-14T13:21:58;2.83;;;1.90;;
12982;SDS011;6556;51.052;4.498;2022-08-14T13:24:25;3.33;;;2.10;;
12982;SDS011;6556;51.052;4.498;2022-08-14T13:26:52;0.93;;;0.93;;
12982;SDS011;6556;51.052;4.498;2022-08-14T13:29:20;3.23;;;1.87;;
12982;SDS011;6556;51.052;4.498;2022-08-14T13:31:48;1.73;;;1.63;;
12982;SDS011;6556;51.052;4.498;2022-08-14T13:34:12;2.33;;;1.73;;
12982;SDS011;6556;51.052;4.498;2022-08-14T13:36:39;2.00;;;1.90;;
12982;SDS011;6556;51.052;4.498;2022-08-14T13:39:06;2.07;;;1.80;;
12982;SDS011;6556;51.052;4.498;2022-08-14T13:41:33;2.10;;;1.90;;
12982;SDS011;6556;51.052;4.498;2022-08-14T13:44:00;2.85;;;2.30;;
12982;SDS011;6556;51.052;4.498;2022-08-14T13:46:27;2.07;;;1.87;;
12982;SDS011;6556;51.052;4.498;2022-08-14T13:48:54;2.10;;;1.80;;
12982;SDS011;6556;51.052;4.498;2022-08-14T13:51:22;2.13;;;1.90;;
12982;SDS011;6556;51.052;4.498;2022-08-14T13:53:48;3.07;;;2.13;;
12982;SDS011;6556;51.052;4.498;2022-08-14T13:56:15;2.67;;;2.00;;
12982;SDS011;6556;51.052;4.498;2022-08-14T13:58:43;1.90;;;1.80;;
12982;SDS011;6556;51.052;4.498;2022-08-14T14:01:14;2.07;;;1.87;;
12982;SDS011;6556;51.052;4.498;2022-08-14T14:03:43;3.90;;;2.10;;
12982;SDS011;6556;51.052;4.498;2022-08-14T14:06:10;1.80;;;1.70;;
12982;SDS011;6556;51.052;4.498;2022-08-14T14:08:37;2.77;;;1.87;;
12982;SDS011;6556;51.052;4.498;2022-08-14T14:11:04;2.42;;;2.15;;
12982;SDS011;6556;51.052;4.498;2022-08-14T14:13:31;2.93;;;2.17;;
12982;SDS011;6556;51.052;4.498;2022-08-14T14:15:58;3.10;;;2.10;;
12982;SDS011;6556;51.052;4.498;2022-08-14T14:18:25;2.50;;;1.90;;
12982;SDS011;6556;51.052;4.498;2022-08-14T14:20:52;2.67;;;1.97;;
12982;SDS011;6556;51.052;4.498;2022-08-14T14:23:19;2.63;;;1.70;;
12982;SDS011;6556;51.052;4.498;2022-08-14T14:25:46;2.00;;;1.80;;
12982;SDS011;6556;51.052;4.498;2022-08-14T14:28:13;2.97;;;2.30;;
12982;SDS011;6556;51.052;4.498;2022-08-14T14:30:40;2.47;;;2.10;;
12982;SDS011;6556;51.052;4.498;2022-08-14T14:33:07;2.00;;;1.80;;
12982;SDS011;6556;51.052;4.498;2022-08-14T14:35:33;1.90;;;1.67;;
12982;SDS011;6556;51.052;4.498;2022-08-14T14:38:00;2.00;;;1.77;;
12982;SDS011;6556;51.052;4.498;2022-08-14T14:40:27;2.53;;;1.83;;
12982;SDS011;6556;51.052;4.498;2022-08-14T14:42:54;2.17;;;1.90;;
12982;SDS011;6556;51.052;4.498;2022-08-14T14:45:21;3.53;;;2.25;;
12982;SDS011;6556;51.052;4.498;2022-08-14T14:47:49;2.10;;;1.90;;
12982;SDS011;6556;51.052;4.498;2022-08-14T14:50:15;2.30;;;1.80;;
12982;SDS011;6556;51.052;4.498;2022-08-14T14:52:42;2.07;;;1.70;;
12982;SDS011;6556;51.052;4.498;2022-08-14T14:55:09;2.80;;;2.00;;
12982;SDS011;6556;51.052;4.498;2022-08-14T14:57:36;2.58;;;2.00;;
12982;SDS011;6556;51.052;4.498;2022-08-14T15:00:05;2.80;;;1.90;;
12982;SDS011;6556;51.052;4.498;2022-08-14T15:02:37;3.13;;;2.03;;
12982;SDS011;6556;51.052;4.498;2022-08-14T15:05:03;2.10;;;1.90;;
12982;SDS011;6556;51.052;4.498;2022-08-14T15:07:30;2.23;;;2.03;;
12982;SDS011;6556;51.052;4.498;2022-08-14T15:09:56;4.13;;;2.10;;
12982;SDS011;6556;51.052;4.498;2022-08-14T15:12:23;2.93;;;2.00;;
12982;SDS011;6556;51.052;4.498;2022-08-14T15:14:50;2.23;;;1.83;;
12982;SDS011;6556;51.052;4.498;2022-08-14T15:17:17;3.47;;;1.97;;
12982;SDS011;6556;51.052;4.498;2022-08-14T15:19:44;1.60;;;1.50;;
12982;SDS011;6556;51.052;4.498;2022-08-14T15:22:11;1.70;;;1.60;;
12982;SDS011;6556;51.052;4.498;2022-08-14T15:24:38;2.27;;;1.70;;
12982;SDS011;6556;51.052;4.498;2022-08-14T15:27:05;3.10;;;2.10;;